sensor_id;sensor_type;location;lat;lon;timestamp;P1;durP1;ratioP1;P2;durP2;ratioP2
41466;SDS011;27205;53.690;19.948;2023-04-16T00:04:07;1.50;;;1.40;;
41466;SDS011;27205;53.690;19.948;2023-04-16T00:09:10;2.40;;;2.10;;
41466;SDS011;27205;53.690;19.948;2023-04-16T00:14:14;1.20;;;1.10;;
41466;SDS011;27205;53.690;19.948;2023-04-16T00:19:17;1.50;;;1.40;;
41466;SDS011;27205;53.690;19.948;2023-04-16T00:24:21;1.00;;;0.90;;
41466;SDS011;27205;53.690;19.948;2023-04-16T00:29:24;1.60;;;1.30;;
41466;SDS011;27205;53.690;19.948;2023-04-16T00:34:30;1.10;;;1.10;;
41466;SDS011;27205;53.690;19.948;2023-04-16T00:39:34;1.00;;;1.00;;
41466;SDS011;27205;53.690;19.948;2023-04-16T00:44:37;1.70;;;1.60;;
41466;SDS011;27205;53.690;19.948;2023-04-16T00:49:41;0.80;;;0.80;;
41466;SDS011;27205;53.690;19.948;2023-04-16T00:54:45;1.40;;;1.30;;
41466;SDS011;27205;53.690;19.948;2023-04-16T00:59:49;1.30;;;1.20;;
41466;SDS011;27205;53.690;19.948;2023-04-16T01:09:57;1.40;;;1.30;;
41466;SDS011;27205;53.690;19.948;2023-04-16T01:15:00;1.20;;;1.10;;
41466;SDS011;27205;53.690;19.948;2023-04-16T01:20:05;1.00;;;1.00;;
41466;SDS011;27205;53.690;19.948;2023-04-16T01:25:12;0.90;;;0.90;;
41466;SDS011;27205;53.690;19.948;2023-04-16T01:30:17;1.10;;;1.10;;
41466;SDS011;27205;53.690;19.948;2023-04-16T01:35:21;0.90;;;0.90;;
41466;SDS011;27205;53.690;19.948;2023-04-16T01:40:24;0.80;;;0.80;;
41466;SDS011;27205;53.690;19.948;2023-04-16T01:45:29;1.10;;;1.10;;
41466;SDS011;27205;53.690;19.948;2023-04-16T01:50:34;1.30;;;1.30;;
41466;SDS011;27205;53.690;19.948;2023-04-16T01:55:37;1.30;;;1.20;;
41466;SDS011;27205;53.690;19.948;2023-04-16T02:00:41;1.10;;;1.10;;
41466;SDS011;27205;53.690;19.948;2023-04-16T02:05:45;0.90;;;0.90;;
41466;SDS011;27205;53.690;19.948;2023-04-16T02:15:53;0.80;;;0.80;;
41466;SDS011;27205;53.690;19.948;2023-04-16T02:20:56;1.10;;;1.10;;
41466;SDS011;27205;53.690;19.948;2023-04-16T02:26:04;2.10;;;1.20;;
41466;SDS011;27205;53.690;19.948;2023-04-16T02:31:08;1.10;;;1.10;;
41466;SDS011;27205;53.690;19.948;2023-04-16T02:36:11;1.40;;;1.10;;
41466;SDS011;27205;53.690;19.948;2023-04-16T02:41:15;0.70;;;0.70;;
41466;SDS011;27205;53.690;19.948;2023-04-16T02:46:18;0.80;;;0.80;;
41466;SDS011;27205;53.690;19.948;2023-04-16T02:51:21;0.90;;;0.90;;
41466;SDS011;27205;53.690;19.948;2023-04-16T02:56:25;0.90;;;0.90;;
41466;SDS011;27205;53.690;19.948;2023-04-16T03:01:28;0.80;;;0.80;;
41466;SDS011;27205;53.690;19.948;2023-04-16T03:06:32;0.80;;;0.80;;
41466;SDS011;27205;53.690;19.948;2023-04-16T03:11:36;0.80;;;0.80;;
41466;SDS011;27205;53.690;19.948;2023-04-16T03:16:39;0.70;;;0.70;;
41466;SDS011;27205;53.690;19.948;2023-04-16T03:21:43;0.50;;;0.50;;
41466;SDS011;27205;53.690;19.948;2023-04-16T03:26:47;0.60;;;0.60;;
41466;SDS011;27205;53.690;19.948;2023-04-16T03:31:50;0.50;;;0.50;;
41466;SDS011;27205;53.690;19.948;2023-04-16T03:36:54;0.40;;;0.40;;
41466;SDS011;27205;53.690;19.948;2023-04-16T03:41:57;0.50;;;0.50;;
41466;SDS011;27205;53.690;19.948;2023-04-16T03:47:01;0.50;;;0.50;;
41466;SDS011;27205;53.690;19.948;2023-04-16T03:52:04;0.60;;;0.60;;
41466;SDS011;27205;53.690;19.948;2023-04-16T03:57:08;0.70;;;0.60;;
41466;SDS011;27205;53.690;19.948;2023-04-16T04:02:11;0.40;;;0.40;;
41466;SDS011;27205;53.690;19.948;2023-04-16T04:07:15;0.80;;;0.80;;
41466;SDS011;27205;53.690;19.948;2023-04-16T04:12:19;0.40;;;0.40;;
41466;SDS011;27205;53.690;19.948;2023-04-16T04:17:22;0.40;;;0.40;;
41466;SDS011;27205;53.690;19.948;2023-04-16T04:22:26;1.20;;;1.00;;
41466;SDS011;27205;53.690;19.948;2023-04-16T04:27:29;1.80;;;1.70;;
41466;SDS011;27205;53.690;19.948;2023-04-16T04:32:33;1.10;;;1.10;;
41466;SDS011;27205;53.690;19.948;2023-04-16T04:37:36;1.80;;;1.20;;
41466;SDS011;27205;53.690;19.948;2023-04-16T04:42:40;1.00;;;1.00;;
41466;SDS011;27205;53.690;19.948;2023-04-16T04:47:44;1.00;;;1.00;;
41466;SDS011;27205;53.690;19.948;2023-04-16T04:52:47;1.40;;;1.30;;
41466;SDS011;27205;53.690;19.948;2023-04-16T04:57:51;1.30;;;1.20;;
41466;SDS011;27205;53.690;19.948;2023-04-16T05:02:54;1.20;;;1.10;;
41466;SDS011;27205;53.690;19.948;2023-04-16T05:07:58;0.70;;;0.70;;
41466;SDS011;27205;53.690;19.948;2023-04-16T05:13:01;0.80;;;0.80;;
41466;SDS011;27205;53.690;19.948;2023-04-16T05:18:05;1.30;;;1.20;;
41466;SDS011;27205;53.690;19.948;2023-04-16T05:23:08;0.50;;;0.50;;
41466;SDS011;27205;53.690;19.948;2023-04-16T05:28:12;0.80;;;0.80;;
41466;SDS011;27205;53.690;19.948;2023-04-16T05:33:16;0.60;;;0.60;;
41466;SDS011;27205;53.690;19.948;2023-04-16T05:38:19;0.60;;;0.60;;
41466;SDS011;27205;53.690;19.948;2023-04-16T05:43:23;1.00;;;0.90;;
41466;SDS011;27205;53.690;19.948;2023-04-16T05:48:26;0.40;;;0.40;;
41466;SDS011;27205;53.690;19.948;2023-04-16T05:53:30;0.60;;;0.60;;
41466;SDS011;27205;53.690;19.948;2023-04-16T06:04:13;0.50;;;0.50;;
41466;SDS011;27205;53.690;19.948;2023-04-16T06:09:21;0.60;;;0.60;;
41466;SDS011;27205;53.690;19.948;2023-04-16T06:14:25;1.30;;;0.50;;
41466;SDS011;27205;53.690;19.948;2023-04-16T06:24:47;0.90;;;0.90;;
41466;SDS011;27205;53.690;19.948;2023-04-16T06:29:50;0.70;;;0.70;;
41466;SDS011;27205;53.690;19.948;2023-04-16T06:34:54;0.80;;;0.80;;
41466;SDS011;27205;53.690;19.948;2023-04-16T06:39:58;1.50;;;1.00;;
41466;SDS011;27205;53.690;19.948;2023-04-16T06:45:02;1.00;;;1.00;;
41466;SDS011;27205;53.690;19.948;2023-04-16T07:04:10;1.00;;;1.00;;
41466;SDS011;27205;53.690;19.948;2023-04-16T07:09:14;1.50;;;1.40;;
41466;SDS011;27205;53.690;19.948;2023-04-16T07:14:20;1.70;;;1.60;;
41466;SDS011;27205;53.690;19.948;2023-04-16T07:19:23;1.60;;;1.50;;
41466;SDS011;27205;53.690;19.948;2023-04-16T07:24:27;1.30;;;1.20;;
41466;SDS011;27205;53.690;19.948;2023-04-16T07:29:32;0.70;;;0.70;;
41466;SDS011;27205;53.690;19.948;2023-04-16T07:34:36;1.00;;;1.00;;
41466;SDS011;27205;53.690;19.948;2023-04-16T07:39:41;0.90;;;0.90;;
41466;SDS011;27205;53.690;19.948;2023-04-16T07:49:58;7.50;;;7.00;;
41466;SDS011;27205;53.690;19.948;2023-04-16T07:55:02;1.10;;;1.10;;
41466;SDS011;27205;53.690;19.948;2023-04-16T08:00:06;0.70;;;0.70;;
41466;SDS011;27205;53.690;19.948;2023-04-16T08:05:11;0.90;;;0.90;;
41466;SDS011;27205;53.690;19.948;2023-04-16T08:10:19;0.50;;;0.50;;
41466;SDS011;27205;53.690;19.948;2023-04-16T08:15:23;0.40;;;0.40;;
41466;SDS011;27205;53.690;19.948;2023-04-16T08:20:27;0.60;;;0.60;;
41466;SDS011;27205;53.690;19.948;2023-04-16T08:25:31;0.80;;;0.80;;
41466;SDS011;27205;53.690;19.948;2023-04-16T08:30:34;0.80;;;0.60;;
41466;SDS011;27205;53.690;19.948;2023-04-16T08:35:38;0.50;;;0.50;;
41466;SDS011;27205;53.690;19.948;2023-04-16T08:40:41;0.70;;;0.70;;
41466;SDS011;27205;53.690;19.948;2023-04-16T08:45:46;0.70;;;0.60;;
41466;SDS011;27205;53.690;19.948;2023-04-16T08:50:51;0.50;;;0.50;;
41466;SDS011;27205;53.690;19.948;2023-04-16T08:55:57;0.70;;;0.70;;
41466;SDS011;27205;53.690;19.948;2023-04-16T09:01:05;0.90;;;0.90;;
41466;SDS011;27205;53.690;19.948;2023-04-16T09:06:13;2.00;;;1.90;;
41466;SDS011;27205;53.690;19.948;2023-04-16T09:11:18;1.90;;;1.80;;
41466;SDS011;27205;53.690;19.948;2023-04-16T09:16:22;1.50;;;1.50;;
41466;SDS011;27205;53.690;19.948;2023-04-16T09:21:26;2.00;;;1.90;;
41466;SDS011;27205;53.690;19.948;2023-04-16T09:26:30;1.90;;;1.80;;
41466;SDS011;27205;53.690;19.948;2023-04-16T09:36:38;1.50;;;1.40;;
41466;SDS011;27205;53.690;19.948;2023-04-16T09:41:41;1.20;;;1.20;;
41466;SDS011;27205;53.690;19.948;2023-04-16T09:46:45;1.30;;;1.20;;
41466;SDS011;27205;53.690;19.948;2023-04-16T09:51:49;1.10;;;1.10;;
41466;SDS011;27205;53.690;19.948;2023-04-16T09:56:56;1.00;;;1.00;;
41466;SDS011;27205;53.690;19.948;2023-04-16T10:02:02;1.30;;;1.30;;
41466;SDS011;27205;53.690;19.948;2023-04-16T10:07:18;1.20;;;1.20;;
41466;SDS011;27205;53.690;19.948;2023-04-16T10:12:22;1.60;;;1.50;;
41466;SDS011;27205;53.690;19.948;2023-04-16T10:17:25;1.10;;;1.10;;
41466;SDS011;27205;53.690;19.948;2023-04-16T10:22:32;1.10;;;1.10;;
41466;SDS011;27205;53.690;19.948;2023-04-16T10:27:35;0.90;;;0.90;;
41466;SDS011;27205;53.690;19.948;2023-04-16T10:32:40;0.80;;;0.80;;
41466;SDS011;27205;53.690;19.948;2023-04-16T10:37:44;1.50;;;1.40;;
41466;SDS011;27205;53.690;19.948;2023-04-16T10:42:53;1.30;;;1.20;;
41466;SDS011;27205;53.690;19.948;2023-04-16T10:47:57;1.20;;;1.20;;
41466;SDS011;27205;53.690;19.948;2023-04-16T10:53:22;0.90;;;0.90;;
41466;SDS011;27205;53.690;19.948;2023-04-16T10:58:31;1.50;;;1.40;;
41466;SDS011;27205;53.690;19.948;2023-04-16T11:03:47;1.40;;;1.40;;
41466;SDS011;27205;53.690;19.948;2023-04-16T11:08:51;1.50;;;1.40;;
41466;SDS011;27205;53.690;19.948;2023-04-16T11:13:57;2.80;;;2.60;;
41466;SDS011;27205;53.690;19.948;2023-04-16T11:19:00;2.80;;;2.60;;
41466;SDS011;27205;53.690;19.948;2023-04-16T11:24:04;3.20;;;3.00;;
41466;SDS011;27205;53.690;19.948;2023-04-16T11:29:14;2.70;;;2.60;;
41466;SDS011;27205;53.690;19.948;2023-04-16T11:34:18;2.70;;;2.60;;
41466;SDS011;27205;53.690;19.948;2023-04-16T11:39:22;2.00;;;1.80;;
41466;SDS011;27205;53.690;19.948;2023-04-16T11:44:26;1.50;;;1.40;;
41466;SDS011;27205;53.690;19.948;2023-04-16T11:49:30;2.60;;;2.40;;
41466;SDS011;27205;53.690;19.948;2023-04-16T11:54:33;2.50;;;2.40;;
41466;SDS011;27205;53.690;19.948;2023-04-16T11:59:44;2.80;;;2.70;;
41466;SDS011;27205;53.690;19.948;2023-04-16T12:05:53;3.50;;;3.30;;
41466;SDS011;27205;53.690;19.948;2023-04-16T12:10:53;2.80;;;2.60;;
41466;SDS011;27205;53.690;19.948;2023-04-16T12:15:57;2.60;;;2.50;;
41466;SDS011;27205;53.690;19.948;2023-04-16T12:21:03;2.60;;;2.50;;
41466;SDS011;27205;53.690;19.948;2023-04-16T12:26:08;2.20;;;2.10;;
41466;SDS011;27205;53.690;19.948;2023-04-16T12:31:16;4.00;;;3.80;;
41466;SDS011;27205;53.690;19.948;2023-04-16T12:36:19;3.00;;;2.90;;
41466;SDS011;27205;53.690;19.948;2023-04-16T12:41:23;2.90;;;2.80;;
41466;SDS011;27205;53.690;19.948;2023-04-16T12:46:27;2.70;;;2.60;;
41466;SDS011;27205;53.690;19.948;2023-04-16T12:51:31;2.70;;;2.60;;
41466;SDS011;27205;53.690;19.948;2023-04-16T12:56:35;2.70;;;2.60;;
41466;SDS011;27205;53.690;19.948;2023-04-16T13:01:39;2.50;;;2.40;;
41466;SDS011;27205;53.690;19.948;2023-04-16T13:06:43;3.10;;;2.90;;
41466;SDS011;27205;53.690;19.948;2023-04-16T13:11:47;3.30;;;3.00;;
41466;SDS011;27205;53.690;19.948;2023-04-16T13:16:50;2.80;;;2.60;;
41466;SDS011;27205;53.690;19.948;2023-04-16T13:21:54;2.80;;;2.60;;
41466;SDS011;27205;53.690;19.948;2023-04-16T13:26:58;4.60;;;4.30;;
41466;SDS011;27205;53.690;19.948;2023-04-16T13:32:01;2.90;;;2.70;;
41466;SDS011;27205;53.690;19.948;2023-04-16T13:37:06;2.20;;;2.10;;
41466;SDS011;27205;53.690;19.948;2023-04-16T13:42:10;3.10;;;3.00;;
41466;SDS011;27205;53.690;19.948;2023-04-16T13:47:13;3.00;;;2.80;;
41466;SDS011;27205;53.690;19.948;2023-04-16T13:52:16;3.10;;;2.90;;
41466;SDS011;27205;53.690;19.948;2023-04-16T13:57:20;3.00;;;2.80;;
41466;SDS011;27205;53.690;19.948;2023-04-16T14:02:24;3.60;;;3.30;;
41466;SDS011;27205;53.690;19.948;2023-04-16T14:12:32;2.10;;;2.00;;
41466;SDS011;27205;53.690;19.948;2023-04-16T14:17:36;3.30;;;2.60;;
41466;SDS011;27205;53.690;19.948;2023-04-16T14:22:39;3.00;;;2.90;;
41466;SDS011;27205;53.690;19.948;2023-04-16T14:27:44;2.30;;;2.20;;
41466;SDS011;27205;53.690;19.948;2023-04-16T14:32:48;2.40;;;2.30;;
41466;SDS011;27205;53.690;19.948;2023-04-16T14:37:51;3.30;;;3.10;;
41466;SDS011;27205;53.690;19.948;2023-04-16T14:42:55;2.40;;;2.30;;
41466;SDS011;27205;53.690;19.948;2023-04-16T14:47:58;1.70;;;1.60;;
41466;SDS011;27205;53.690;19.948;2023-04-16T14:53:02;2.00;;;1.90;;
41466;SDS011;27205;53.690;19.948;2023-04-16T14:58:06;2.10;;;2.00;;
41466;SDS011;27205;53.690;19.948;2023-04-16T15:03:10;5.40;;;4.90;;
41466;SDS011;27205;53.690;19.948;2023-04-16T15:08:14;3.10;;;3.00;;
41466;SDS011;27205;53.690;19.948;2023-04-16T15:18:22;2.70;;;2.60;;
41466;SDS011;27205;53.690;19.948;2023-04-16T15:23:26;3.90;;;3.70;;
41466;SDS011;27205;53.690;19.948;2023-04-16T15:28:29;4.30;;;4.10;;
41466;SDS011;27205;53.690;19.948;2023-04-16T15:33:33;5.60;;;5.30;;
41466;SDS011;27205;53.690;19.948;2023-04-16T15:38:37;5.40;;;5.10;;
41466;SDS011;27205;53.690;19.948;2023-04-16T15:43:40;3.20;;;3.00;;
41466;SDS011;27205;53.690;19.948;2023-04-16T15:48:44;3.30;;;3.10;;
41466;SDS011;27205;53.690;19.948;2023-04-16T15:53:47;3.50;;;3.30;;
41466;SDS011;27205;53.690;19.948;2023-04-16T15:58:52;5.30;;;5.00;;
41466;SDS011;27205;53.690;19.948;2023-04-16T16:03:55;3.90;;;3.70;;
41466;SDS011;27205;53.690;19.948;2023-04-16T16:08:59;4.00;;;3.80;;
41466;SDS011;27205;53.690;19.948;2023-04-16T16:14:03;3.70;;;3.50;;
41466;SDS011;27205;53.690;19.948;2023-04-16T16:19:07;4.30;;;4.10;;
41466;SDS011;27205;53.690;19.948;2023-04-16T16:24:11;4.90;;;4.60;;
41466;SDS011;27205;53.690;19.948;2023-04-16T16:29:15;4.50;;;4.20;;
41466;SDS011;27205;53.690;19.948;2023-04-16T16:34:19;5.10;;;4.80;;
41466;SDS011;27205;53.690;19.948;2023-04-16T16:39:23;3.20;;;3.00;;
41466;SDS011;27205;53.690;19.948;2023-04-16T16:44:27;3.80;;;3.50;;
41466;SDS011;27205;53.690;19.948;2023-04-16T16:49:30;4.50;;;4.30;;
41466;SDS011;27205;53.690;19.948;2023-04-16T16:54:34;4.10;;;3.90;;
41466;SDS011;27205;53.690;19.948;2023-04-16T16:59:37;3.70;;;3.50;;
41466;SDS011;27205;53.690;19.948;2023-04-16T17:04:41;6.30;;;5.70;;
41466;SDS011;27205;53.690;19.948;2023-04-16T17:09:44;5.50;;;5.10;;
41466;SDS011;27205;53.690;19.948;2023-04-16T17:14:48;5.20;;;4.90;;
41466;SDS011;27205;53.690;19.948;2023-04-16T17:19:53;4.40;;;4.20;;
41466;SDS011;27205;53.690;19.948;2023-04-16T17:24:56;3.60;;;3.40;;
41466;SDS011;27205;53.690;19.948;2023-04-16T17:30:00;5.50;;;5.10;;
41466;SDS011;27205;53.690;19.948;2023-04-16T17:35:04;6.40;;;6.00;;
41466;SDS011;27205;53.690;19.948;2023-04-16T17:40:08;4.80;;;4.50;;
41466;SDS011;27205;53.690;19.948;2023-04-16T17:45:14;4.00;;;3.80;;
41466;SDS011;27205;53.690;19.948;2023-04-16T17:50:18;4.30;;;4.00;;
41466;SDS011;27205;53.690;19.948;2023-04-16T17:55:21;3.90;;;3.70;;
41466;SDS011;27205;53.690;19.948;2023-04-16T18:00:25;5.00;;;4.60;;
41466;SDS011;27205;53.690;19.948;2023-04-16T18:05:29;6.10;;;5.70;;
41466;SDS011;27205;53.690;19.948;2023-04-16T18:10:32;4.70;;;4.40;;
41466;SDS011;27205;53.690;19.948;2023-04-16T18:15:36;3.60;;;3.40;;
41466;SDS011;27205;53.690;19.948;2023-04-16T18:20:40;4.10;;;3.90;;
41466;SDS011;27205;53.690;19.948;2023-04-16T18:25:44;5.00;;;4.70;;
41466;SDS011;27205;53.690;19.948;2023-04-16T18:30:51;5.50;;;5.10;;
41466;SDS011;27205;53.690;19.948;2023-04-16T18:35:54;4.40;;;4.10;;
41466;SDS011;27205;53.690;19.948;2023-04-16T18:40:58;4.90;;;4.60;;
41466;SDS011;27205;53.690;19.948;2023-04-16T18:46:01;5.90;;;5.40;;
41466;SDS011;27205;53.690;19.948;2023-04-16T18:51:05;4.10;;;3.70;;
41466;SDS011;27205;53.690;19.948;2023-04-16T19:01:13;4.70;;;4.40;;
41466;SDS011;27205;53.690;19.948;2023-04-16T19:06:18;4.90;;;4.60;;
41466;SDS011;27205;53.690;19.948;2023-04-16T19:11:22;5.20;;;4.80;;
41466;SDS011;27205;53.690;19.948;2023-04-16T19:16:26;4.30;;;4.00;;
41466;SDS011;27205;53.690;19.948;2023-04-16T19:21:30;5.60;;;5.10;;
41466;SDS011;27205;53.690;19.948;2023-04-16T19:31:38;5.30;;;5.00;;
41466;SDS011;27205;53.690;19.948;2023-04-16T19:36:42;4.70;;;4.40;;
41466;SDS011;27205;53.690;19.948;2023-04-16T19:41:47;5.60;;;5.20;;
41466;SDS011;27205;53.690;19.948;2023-04-16T19:46:50;5.20;;;4.90;;
41466;SDS011;27205;53.690;19.948;2023-04-16T19:51:54;5.20;;;4.90;;
41466;SDS011;27205;53.690;19.948;2023-04-16T19:56:57;5.20;;;4.80;;
41466;SDS011;27205;53.690;19.948;2023-04-16T20:02:01;5.90;;;5.40;;
41466;SDS011;27205;53.690;19.948;2023-04-16T20:07:05;5.80;;;5.40;;
41466;SDS011;27205;53.690;19.948;2023-04-16T20:12:08;5.30;;;5.00;;
41466;SDS011;27205;53.690;19.948;2023-04-16T20:17:12;5.70;;;5.40;;
41466;SDS011;27205;53.690;19.948;2023-04-16T20:22:21;7.70;;;7.20;;
41466;SDS011;27205;53.690;19.948;2023-04-16T20:27:25;6.10;;;5.70;;
41466;SDS011;27205;53.690;19.948;2023-04-16T20:32:28;5.90;;;5.50;;
41466;SDS011;27205;53.690;19.948;2023-04-16T20:37:32;5.60;;;5.20;;
41466;SDS011;27205;53.690;19.948;2023-04-16T20:42:40;6.40;;;6.00;;
41466;SDS011;27205;53.690;19.948;2023-04-16T20:47:48;6.60;;;6.20;;
41466;SDS011;27205;53.690;19.948;2023-04-16T20:52:52;5.90;;;5.40;;
41466;SDS011;27205;53.690;19.948;2023-04-16T20:57:56;5.40;;;5.10;;
41466;SDS011;27205;53.690;19.948;2023-04-16T21:02:59;6.00;;;5.50;;
41466;SDS011;27205;53.690;19.948;2023-04-16T21:08:03;7.20;;;6.70;;
41466;SDS011;27205;53.690;19.948;2023-04-16T21:13:07;6.20;;;5.80;;
41466;SDS011;27205;53.690;19.948;2023-04-16T21:18:12;6.60;;;6.00;;
41466;SDS011;27205;53.690;19.948;2023-04-16T21:23:16;6.10;;;5.70;;
41466;SDS011;27205;53.690;19.948;2023-04-16T21:28:19;6.30;;;5.90;;
41466;SDS011;27205;53.690;19.948;2023-04-16T21:33:23;6.70;;;5.80;;
41466;SDS011;27205;53.690;19.948;2023-04-16T21:38:26;5.60;;;5.20;;
41466;SDS011;27205;53.690;19.948;2023-04-16T21:43:30;5.70;;;5.30;;
41466;SDS011;27205;53.690;19.948;2023-04-16T21:48:34;6.70;;;6.30;;
41466;SDS011;27205;53.690;19.948;2023-04-16T21:53:37;7.00;;;6.50;;
41466;SDS011;27205;53.690;19.948;2023-04-16T21:58:41;8.30;;;7.50;;
41466;SDS011;27205;53.690;19.948;2023-04-16T22:03:44;6.10;;;5.60;;
41466;SDS011;27205;53.690;19.948;2023-04-16T22:09:20;7.60;;;7.10;;
41466;SDS011;27205;53.690;19.948;2023-04-16T22:14:26;7.30;;;6.70;;
41466;SDS011;27205;53.690;19.948;2023-04-16T22:19:31;7.10;;;6.50;;
41466;SDS011;27205;53.690;19.948;2023-04-16T22:24:36;7.00;;;6.50;;
41466;SDS011;27205;53.690;19.948;2023-04-16T22:29:40;7.40;;;6.80;;
41466;SDS011;27205;53.690;19.948;2023-04-16T22:34:43;7.90;;;7.30;;
41466;SDS011;27205;53.690;19.948;2023-04-16T22:39:47;7.20;;;6.60;;
41466;SDS011;27205;53.690;19.948;2023-04-16T22:44:50;6.10;;;5.70;;
41466;SDS011;27205;53.690;19.948;2023-04-16T22:49:54;7.60;;;7.00;;
41466;SDS011;27205;53.690;19.948;2023-04-16T22:54:57;6.70;;;6.20;;
41466;SDS011;27205;53.690;19.948;2023-04-16T23:00:01;7.00;;;6.50;;
41466;SDS011;27205;53.690;19.948;2023-04-16T23:05:09;8.40;;;7.80;;
41466;SDS011;27205;53.690;19.948;2023-04-16T23:10:13;6.90;;;6.40;;
41466;SDS011;27205;53.690;19.948;2023-04-16T23:15:17;6.30;;;5.90;;
41466;SDS011;27205;53.690;19.948;2023-04-16T23:20:21;6.10;;;5.70;;
41466;SDS011;27205;53.690;19.948;2023-04-16T23:25:24;6.70;;;6.20;;
41466;SDS011;27205;53.690;19.948;2023-04-16T23:30:27;6.50;;;6.00;;
41466;SDS011;27205;53.690;19.948;2023-04-16T23:35:31;6.90;;;6.40;;
41466;SDS011;27205;53.690;19.948;2023-04-16T23:40:34;6.80;;;6.30;;
41466;SDS011;27205;53.690;19.948;2023-04-16T23:45:38;5.10;;;4.70;;
41466;SDS011;27205;53.690;19.948;2023-04-16T23:50:41;6.70;;;6.20;;
41466;SDS011;27205;53.690;19.948;2023-04-16T23:55:45;4.90;;;4.60;;
